Time;durP1;ratioP1;P1;durP2;ratioP2;P2;SDS_P1;SDS_P2;PMS_P1;PMS_P2;Temp;Humidity;BMP_temperature;BMP_pressure;BME280_temperature;BME280_humidity;BME280_pressure;Samples;Min_cycle;Max_cycle;Signal;HPM_P1;HPM_P2
2022/01/16 00:04:28;;;;;;;49.70;26.90;;;1.40;99.90;;;;;;5096148;27;20441;-64
2022/01/16 00:06:55;;;;;;;43.27;26.43;;;1.50;99.90;;;;;;5130222;27;20467;-63
2022/01/16 00:09:23;;;;;;;49.17;25.23;;;1.60;99.90;;;;;;5130559;27;21072;-64
2022/01/16 00:11:55;;;;;;;50.07;26.33;;;1.60;99.90;;;;;;5130406;27;20929;-62
2022/01/16 00:14:22;;;;;;;45.40;25.83;;;1.50;99.90;;;;;;5130550;27;20559;-64
2022/01/16 00:16:49;;;;;;;67.63;30.17;;;1.50;99.90;;;;;;5130017;27;20452;-63
2022/01/16 00:19:15;;;;;;;46.57;25.50;;;1.60;99.90;;;;;;5130291;27;20444;-64
2022/01/16 00:21:43;;;;;;;51.50;26.67;;;1.60;99.90;;;;;;5129744;27;20492;-62
2022/01/16 00:24:11;;;;;;;54.23;28.67;;;1.60;99.90;;;;;;5130329;27;20452;-64
2022/01/16 00:26:40;;;;;;;47.30;27.63;;;1.50;99.90;;;;;;5125589;27;20456;-64
2022/01/16 00:29:09;;;;;;;48.43;27.57;;;1.50;99.90;;;;;;5129545;27;20441;-63
2022/01/16 00:31:38;;;;;;;47.57;26.00;;;1.50;99.90;;;;;;5127643;27;20469;-64
2022/01/16 00:34:05;;;;;;;52.53;27.50;;;1.40;99.90;;;;;;5129814;27;20461;-63
2022/01/16 00:36:32;;;;;;;45.57;25.00;;;1.40;99.90;;;;;;5129645;27;20925;-62
2022/01/16 00:38:59;;;;;;;45.50;26.43;;;1.30;99.90;;;;;;5129233;27;20985;-63
2022/01/16 00:41:27;;;;;;;51.57;27.63;;;1.30;99.90;;;;;;5129415;27;20496;-63
2022/01/16 00:43:55;;;;;;;48.53;26.00;;;1.30;99.90;;;;;;5129363;27;20989;-63
2022/01/16 00:46:22;;;;;;;50.67;26.57;;;1.30;99.90;;;;;;5130057;27;20449;-62
2022/01/16 00:48:49;;;;;;;45.50;26.87;;;1.40;99.90;;;;;;5129320;27;20451;-63
2022/01/16 00:51:17;;;;;;;46.67;27.27;;;1.30;99.90;;;;;;5129566;27;20470;-62
2022/01/16 00:53:44;;;;;;;45.67;24.87;;;1.40;99.90;;;;;;5129448;27;20445;-62
2022/01/16 00:56:11;;;;;;;44.87;26.57;;;1.40;99.90;;;;;;5128399;27;20456;-63
2022/01/16 00:58:38;;;;;;;48.70;25.63;;;1.40;99.90;;;;;;5128776;27;20455;-63
2022/01/16 01:01:06;;;;;;;45.77;27.20;;;1.50;99.90;;;;;;5128934;27;20548;-64
2022/01/16 01:03:33;;;;;;;54.90;27.60;;;1.50;99.90;;;;;;5129203;27;20452;-62
2022/01/16 01:06:00;;;;;;;51.03;27.57;;;1.50;99.90;;;;;;5128544;27;20456;-64
2022/01/16 01:08:29;;;;;;;52.30;27.87;;;1.50;99.90;;;;;;5127889;27;20461;-63
2022/01/16 01:10:57;;;;;;;51.47;28.10;;;1.60;99.90;;;;;;5129387;27;20526;-63
2022/01/16 01:13:31;;;;;;;40.23;23.83;;;1.60;99.90;;;;;;5130513;27;21144;-63
2022/01/16 01:16:02;;;;;;;47.30;28.70;;;1.60;99.90;;;;;;5130001;27;20444;-63
2022/01/16 01:18:32;;;;;;;48.17;26.70;;;1.50;99.90;;;;;;5130720;27;20532;-63
2022/01/16 01:21:02;;;;;;;48.17;26.90;;;1.50;99.90;;;;;;5130072;27;20467;-62
2022/01/16 01:23:29;;;;;;;50.40;28.03;;;1.50;99.90;;;;;;5130281;27;20449;-63
2022/01/16 01:25:56;;;;;;;50.70;29.53;;;1.40;99.90;;;;;;5127569;27;20453;-62
2022/01/16 01:28:23;;;;;;;45.90;27.27;;;1.40;99.90;;;;;;5128180;27;20448;-63
2022/01/16 01:30:50;;;;;;;46.47;28.70;;;1.40;99.90;;;;;;5129326;27;20471;-64
2022/01/16 01:33:19;;;;;;;54.40;29.30;;;1.40;99.90;;;;;;5130027;27;20441;-65
2022/01/16 01:35:48;;;;;;;49.40;28.27;;;1.40;99.90;;;;;;5129655;27;20472;-63
2022/01/16 01:38:18;;;;;;;46.67;28.83;;;1.30;99.90;;;;;;5130000;27;20452;-62
2022/01/16 01:40:47;;;;;;;46.77;27.43;;;1.30;99.90;;;;;;5129155;27;20476;-63
2022/01/16 01:51:44;;;;;;;52.10;27.00;;;1.40;99.90;;;;;;5129600;27;20455;-63
2022/01/16 01:54:11;;;;;;;49.87;27.87;;;1.40;99.90;;;;;;5123023;27;20455;-63
2022/01/16 01:56:39;;;;;;;50.30;28.47;;;1.50;99.90;;;;;;5127730;27;21022;-62
2022/01/16 01:59:07;;;;;;;54.00;29.10;;;1.50;99.90;;;;;;5125317;27;21006;-62
2022/01/16 02:01:35;;;;;;;50.20;28.93;;;1.60;99.90;;;;;;5122984;27;20496;-62
2022/01/16 02:04:02;;;;;;;51.13;28.67;;;1.60;99.90;;;;;;5129564;27;20539;-62
2022/01/16 02:06:31;;;;;;;54.07;29.23;;;1.60;99.90;;;;;;5129587;27;20543;-63
2022/01/16 02:09:01;;;;;;;49.03;27.57;;;1.60;99.90;;;;;;5129256;27;20610;-61
2022/01/16 02:11:31;;;;;;;50.37;29.93;;;1.50;99.90;;;;;;5122745;27;20465;-62
2022/01/16 02:14:05;;;;;;;48.57;29.00;;;1.50;99.90;;;;;;5128891;27;20523;-63
2022/01/16 02:28:08;;;;;;;48.17;28.80;;;1.60;99.90;;;;;;5110136;28;20470;-63
2022/01/16 02:30:59;;;;;;;53.00;28.63;;;1.60;99.90;;;;;;5109754;28;20955;-63
2022/01/16 02:36:18;;;;;;;62.23;30.87;;;1.50;99.90;;;;;;5110182;28;20434;-63
2022/01/16 02:38:47;;;;;;;57.33;32.57;;;1.40;99.90;;;;;;5110617;28;20449;-63
2022/01/16 02:41:15;;;;;;;55.83;30.23;;;1.50;99.90;;;;;;5109930;28;20470;-64
2022/01/16 02:43:46;;;;;;;48.60;29.57;;;1.40;99.90;;;;;;5110065;28;20484;-63
2022/01/16 02:48:58;;;;;;;51.70;27.50;;;1.40;99.90;;;;;;5110163;28;20477;-63
2022/01/16 02:51:27;;;;;;;53.30;30.73;;;1.40;99.90;;;;;;5110017;28;20465;-63
2022/01/16 02:53:56;;;;;;;53.60;31.50;;;1.40;99.90;;;;;;5110234;28;20452;-63
2022/01/16 02:56:24;;;;;;;55.27;32.80;;;1.40;99.90;;;;;;5109751;28;20868;-63
2022/01/16 02:58:52;;;;;;;44.43;27.00;;;1.40;99.90;;;;;;5109684;28;20449;-63
2022/01/16 03:01:19;;;;;;;55.47;31.23;;;1.30;99.90;;;;;;5109123;28;20525;-63
2022/01/16 03:03:46;;;;;;;48.63;28.10;;;1.20;99.90;;;;;;5109449;28;20485;-63
2022/01/16 03:06:13;;;;;;;53.40;29.27;;;1.20;99.90;;;;;;5109736;28;20479;-63
2022/01/16 03:08:40;;;;;;;45.03;28.20;;;1.20;99.90;;;;;;5109694;28;20450;-62
2022/01/16 03:11:21;;;;;;;50.00;30.00;;;1.20;99.90;;;;;;5109194;28;21012;-63
2022/01/16 03:13:49;;;;;;;47.07;27.13;;;1.20;99.90;;;;;;5109578;28;20449;-63
2022/01/16 03:16:17;;;;;;;54.60;28.63;;;1.20;99.90;;;;;;5109801;28;20448;-63
2022/01/16 03:24:12;;;;;;;59.33;31.90;;;1.10;99.90;;;;;;5109465;28;20416;-62
2022/01/16 03:26:41;;;;;;;49.57;28.13;;;1.20;99.90;;;;;;5109815;28;20438;-63
2022/01/16 03:29:08;;;;;;;50.90;27.00;;;1.20;99.90;;;;;;5112822;28;20446;-63
2022/01/16 03:31:35;;;;;;;49.87;26.97;;;1.20;99.90;;;;;;5113561;28;20544;-63
2022/01/16 03:34:01;;;;;;;50.80;30.13;;;1.20;99.90;;;;;;5113651;28;20448;-63
2022/01/16 03:36:28;;;;;;;55.70;29.17;;;1.20;99.90;;;;;;5113375;28;20444;-63
2022/01/16 03:38:55;;;;;;;56.70;30.57;;;1.10;99.90;;;;;;5113221;28;20444;-63
2022/01/16 03:41:26;;;;;;;45.60;26.10;;;1.10;99.90;;;;;;5113142;28;20512;-63
2022/01/16 03:43:55;;;;;;;50.53;26.20;;;1.20;99.90;;;;;;5113101;28;20917;-62
2022/01/16 03:46:22;;;;;;;46.00;26.00;;;1.20;99.90;;;;;;5113650;28;20442;-63
2022/01/16 03:48:49;;;;;;;44.70;26.67;;;1.10;99.90;;;;;;5113349;28;20471;-63
2022/01/16 03:51:16;;;;;;;47.43;28.17;;;1.00;99.90;;;;;;5112930;28;20551;-63
2022/01/16 03:53:44;;;;;;;50.67;30.77;;;1.00;99.90;;;;;;5113365;28;20437;-63
2022/01/16 03:56:11;;;;;;;48.80;28.07;;;1.00;99.90;;;;;;5113156;28;20506;-63
2022/01/16 03:58:38;;;;;;;50.03;28.20;;;1.00;99.90;;;;;;5112895;28;20443;-63
2022/01/16 04:01:06;;;;;;;46.17;26.57;;;0.90;99.90;;;;;;5112555;28;20470;-63
2022/01/16 04:03:33;;;;;;;51.90;28.00;;;1.00;99.90;;;;;;5112701;27;21002;-62
2022/01/16 04:06:01;;;;;;;45.90;27.00;;;1.00;99.90;;;;;;5112709;28;20445;-63
2022/01/16 04:08:28;;;;;;;42.73;25.83;;;1.00;99.90;;;;;;5112725;28;20468;-63
2022/01/16 04:10:55;;;;;;;52.60;29.13;;;1.10;99.90;;;;;;5112119;28;20860;-63
2022/01/16 04:13:22;;;;;;;52.20;27.47;;;1.10;99.90;;;;;;5112858;28;20521;-64
2022/01/16 04:15:49;;;;;;;54.53;29.37;;;1.10;99.90;;;;;;5112779;28;20493;-63
2022/01/16 04:18:18;;;;;;;48.53;27.27;;;1.10;99.90;;;;;;5112570;28;20446;-63
2022/01/16 04:20:45;;;;;;;46.20;28.17;;;1.10;99.90;;;;;;5112015;28;20993;-68
2022/01/16 04:23:12;;;;;;;40.63;25.27;;;1.20;99.90;;;;;;5112471;28;20485;-64
2022/01/16 04:25:39;;;;;;;40.40;24.90;;;1.20;99.90;;;;;;5112724;28;20463;-63
2022/01/16 04:28:06;;;;;;;48.30;28.23;;;1.20;99.90;;;;;;5112683;28;20453;-64
2022/01/16 04:30:33;;;;;;;49.93;26.80;;;1.20;99.90;;;;;;5112611;28;20468;-64
2022/01/16 04:33:00;;;;;;;50.70;29.23;;;1.20;99.90;;;;;;5112598;28;20449;-63
2022/01/16 04:35:28;;;;;;;48.70;27.93;;;1.10;99.90;;;;;;5112701;28;20925;-63
2022/01/16 04:37:55;;;;;;;51.10;28.60;;;1.10;99.90;;;;;;5113134;28;20442;-62
2022/01/16 04:40:23;;;;;;;48.50;28.17;;;1.20;99.90;;;;;;5111968;28;20478;-62
2022/01/16 04:45:34;;;;;;;45.60;27.00;;;1.20;99.90;;;;;;5112471;28;20551;-62
2022/01/16 04:48:01;;;;;;;48.57;26.53;;;1.30;99.90;;;;;;5112345;28;20974;-62
2022/01/16 04:50:29;;;;;;;45.67;28.20;;;1.30;99.90;;;;;;5111893;28;20556;-65
2022/01/16 04:52:56;;;;;;;44.33;28.00;;;1.30;99.90;;;;;;5112011;28;20813;-63
2022/01/16 04:55:25;;;;;;;46.07;26.63;;;1.30;99.90;;;;;;5111744;28;20449;-62
2022/01/16 04:57:52;;;;;;;52.47;29.57;;;1.30;99.90;;;;;;5111771;28;20453;-63
2022/01/16 05:00:19;;;;;;;41.00;25.33;;;1.30;99.90;;;;;;5110999;28;20506;-62
2022/01/16 05:02:46;;;;;;;46.03;24.50;;;1.40;99.90;;;;;;5111898;28;20555;-63
2022/01/16 05:05:13;;;;;;;43.03;26.10;;;1.30;99.90;;;;;;5111925;28;20540;-63
2022/01/16 05:07:42;;;;;;;42.53;27.47;;;1.30;99.90;;;;;;5111611;28;20459;-63
2022/01/16 05:10:10;;;;;;;44.40;25.33;;;1.30;99.90;;;;;;5110903;28;20453;-63
2022/01/16 05:12:39;;;;;;;41.87;24.03;;;1.30;99.90;;;;;;5110978;28;20449;-64
2022/01/16 05:17:53;;;;;;;33.80;23.87;;;1.30;99.90;;;;;;5111577;28;20923;-63
2022/01/16 05:20:20;;;;;;;35.80;24.50;;;1.20;99.90;;;;;;5110943;28;20474;-62
2022/01/16 05:22:49;;;;;;;42.43;24.27;;;1.20;99.90;;;;;;5111069;28;20856;-63
2022/01/16 05:25:17;;;;;;;36.27;22.40;;;1.20;99.90;;;;;;5111566;28;20452;-63
2022/01/16 05:27:44;;;;;;;36.17;23.40;;;1.20;99.90;;;;;;5111373;28;20499;-63
2022/01/16 05:30:12;;;;;;;41.03;24.77;;;1.20;99.90;;;;;;5110671;28;20533;-63
2022/01/16 05:32:39;;;;;;;39.97;25.00;;;1.20;99.90;;;;;;5111012;28;20446;-63
2022/01/16 05:35:07;;;;;;;38.23;25.40;;;1.20;99.90;;;;;;5110711;28;20927;-63
2022/01/16 05:37:34;;;;;;;38.50;23.93;;;1.30;99.90;;;;;;5110620;28;20453;-63
2022/01/16 05:40:02;;;;;;;41.77;24.03;;;1.20;99.90;;;;;;5110381;28;20578;-62
2022/01/16 05:42:29;;;;;;;41.70;24.90;;;1.30;99.90;;;;;;5110567;28;20537;-63
2022/01/16 05:44:56;;;;;;;37.50;24.80;;;1.20;99.90;;;;;;5110721;28;20502;-63
2022/01/16 05:47:23;;;;;;;40.80;24.67;;;1.20;99.90;;;;;;5110777;28;20442;-63
2022/01/16 05:49:50;;;;;;;35.70;22.47;;;1.20;99.90;;;;;;5110151;28;21061;-63
2022/01/16 05:52:16;;;;;;;39.10;26.07;;;1.20;99.90;;;;;;5110060;28;20466;-63
2022/01/16 05:54:43;;;;;;;37.17;23.70;;;1.20;99.90;;;;;;5110194;28;21038;-63
2022/01/16 05:57:12;;;;;;;34.83;22.97;;;1.20;99.90;;;;;;5110248;28;20456;-63
2022/01/16 05:59:39;;;;;;;34.50;24.20;;;1.20;99.90;;;;;;5109966;28;20442;-62
2022/01/16 06:02:06;;;;;;;35.60;24.17;;;1.20;99.90;;;;;;5110052;28;20476;-63
2022/01/16 06:04:33;;;;;;;36.23;22.57;;;1.20;99.90;;;;;;5109948;28;20500;-64
2022/01/16 06:07:01;;;;;;;34.47;22.70;;;1.10;99.90;;;;;;5109977;28;20457;-63
2022/01/16 06:09:28;;;;;;;39.43;24.73;;;1.10;99.90;;;;;;5109898;28;20536;-63
2022/01/16 06:11:56;;;;;;;39.93;23.57;;;1.10;99.90;;;;;;5109933;27;20464;-63
2022/01/16 06:14:25;;;;;;;35.47;23.10;;;1.10;99.90;;;;;;5109977;28;20446;-64
2022/01/16 06:16:53;;;;;;;36.00;23.93;;;1.10;99.90;;;;;;5109628;28;20989;-62
2022/01/16 06:19:20;;;;;;;34.77;21.83;;;1.10;99.90;;;;;;5109630;28;20761;-63
2022/01/16 06:21:47;;;;;;;37.27;22.27;;;1.10;99.90;;;;;;5110215;28;20472;-62
2022/01/16 06:24:15;;;;;;;41.63;24.20;;;1.10;99.90;;;;;;5109881;28;21013;-62
2022/01/16 06:26:42;;;;;;;33.90;22.70;;;1.10;99.90;;;;;;5110056;28;20438;-62
2022/01/16 06:29:09;;;;;;;34.63;21.53;;;1.10;99.90;;;;;;5109525;28;20544;-63
2022/01/16 06:31:37;;;;;;;36.37;22.07;;;1.00;99.90;;;;;;5109560;28;20986;-65
2022/01/16 06:34:06;;;;;;;34.87;24.40;;;1.10;99.90;;;;;;5109836;28;20442;-62
2022/01/16 06:36:34;;;;;;;36.00;22.90;;;1.10;99.90;;;;;;5109944;28;20522;-63
2022/01/16 06:39:01;;;;;;;33.70;20.47;;;1.10;99.90;;;;;;5109816;28;20438;-63
2022/01/16 06:41:28;;;;;;;31.20;23.00;;;1.10;99.90;;;;;;5109507;28;20461;-63
2022/01/16 06:43:54;;;;;;;37.70;22.90;;;1.00;99.90;;;;;;5109518;28;21014;-63
2022/01/16 06:46:21;;;;;;;32.03;21.87;;;1.00;99.90;;;;;;5109818;28;20446;-63
2022/01/16 06:48:50;;;;;;;34.93;22.67;;;1.10;99.90;;;;;;5109514;28;20895;-67
2022/01/16 06:51:18;;;;;;;29.47;20.40;;;1.00;99.90;;;;;;5109477;28;20463;-62
2022/01/16 06:53:45;;;;;;;34.57;21.07;;;1.10;99.90;;;;;;5109402;28;20955;-63
2022/01/16 06:56:12;;;;;;;32.90;20.83;;;1.00;99.90;;;;;;5109525;28;20449;-62
2022/01/16 06:58:39;;;;;;;31.97;21.37;;;1.00;99.90;;;;;;5109313;28;20482;-63
2022/01/16 07:01:06;;;;;;;28.23;19.53;;;1.00;99.90;;;;;;5109352;28;20567;-63
2022/01/16 07:03:32;;;;;;;29.10;20.03;;;1.00;99.90;;;;;;5111834;28;20481;-62
2022/01/16 07:06:01;;;;;;;30.67;21.50;;;1.00;99.90;;;;;;5113672;28;20864;-63
2022/01/16 07:08:28;;;;;;;31.70;21.00;;;1.10;99.90;;;;;;5113469;28;20457;-63
2022/01/16 07:10:56;;;;;;;28.57;20.10;;;1.10;99.90;;;;;;5113126;28;20464;-63
2022/01/16 07:13:23;;;;;;;34.53;22.37;;;1.00;99.90;;;;;;5113756;28;20446;-63
2022/01/16 07:15:51;;;;;;;33.20;22.30;;;1.00;99.90;;;;;;5113671;28;20829;-63
2022/01/16 07:18:18;;;;;;;30.50;19.90;;;1.00;99.90;;;;;;5113501;28;20464;-63
2022/01/16 07:20:46;;;;;;;28.93;20.37;;;0.90;99.90;;;;;;5112824;28;20465;-63
2022/01/16 07:23:15;;;;;;;29.07;21.40;;;1.00;99.90;;;;;;5113484;28;20485;-62
2022/01/16 07:25:42;;;;;;;26.67;20.03;;;0.90;99.90;;;;;;5113314;28;20449;-63
2022/01/16 07:28:10;;;;;;;28.83;20.30;;;0.90;99.90;;;;;;5113461;28;20788;-62
2022/01/16 07:30:38;;;;;;;33.07;20.83;;;1.00;99.90;;;;;;5113182;28;20469;-63
2022/01/16 07:33:05;;;;;;;28.47;19.70;;;1.00;99.90;;;;;;5114040;28;20445;-62
2022/01/16 07:35:33;;;;;;;27.60;19.03;;;1.00;99.90;;;;;;5114443;28;20453;-63
2022/01/16 07:38:00;;;;;;;29.73;20.97;;;1.00;99.90;;;;;;5114024;28;20445;-62
2022/01/16 07:40:29;;;;;;;27.07;17.50;;;1.00;99.90;;;;;;5113160;28;20472;-63
2022/01/16 07:42:58;;;;;;;30.30;20.20;;;1.00;99.90;;;;;;5112982;28;20965;-63
2022/01/16 07:45:25;;;;;;;29.33;19.50;;;1.10;99.90;;;;;;5112867;27;20946;-63
2022/01/16 07:47:52;;;;;;;28.50;20.27;;;1.10;99.90;;;;;;5112781;28;20820;-62
2022/01/16 07:50:19;;;;;;;27.47;19.60;;;1.00;99.90;;;;;;5112837;28;20514;-63
2022/01/16 07:52:47;;;;;;;30.67;20.67;;;1.00;99.90;;;;;;5112422;28;20502;-63
2022/01/16 07:55:14;;;;;;;27.20;18.40;;;1.10;99.90;;;;;;5112694;28;20446;-63
2022/01/16 07:57:43;;;;;;;27.60;19.50;;;1.10;99.90;;;;;;5112482;28;20950;-63
2022/01/16 08:00:12;;;;;;;26.40;18.47;;;1.10;99.90;;;;;;5112236;28;20532;-62
2022/01/16 08:02:39;;;;;;;32.37;19.63;;;1.10;99.90;;;;;;5112546;28;20450;-63
2022/01/16 08:05:06;;;;;;;28.57;18.70;;;1.10;99.90;;;;;;5112306;28;20484;-64
2022/01/16 08:07:33;;;;;;;27.63;19.83;;;1.10;99.90;;;;;;5112055;28;20535;-63
2022/01/16 08:10:00;;;;;;;25.00;19.67;;;0.90;99.90;;;;;;5112140;28;20452;-63
2022/01/16 08:12:27;;;;;;;27.63;19.00;;;0.80;99.90;;;;;;5112176;28;20455;-63
2022/01/16 08:14:55;;;;;;;30.77;20.60;;;0.90;99.90;;;;;;5111872;28;20551;-59
2022/01/16 08:17:22;;;;;;;29.53;20.67;;;0.80;99.90;;;;;;5112108;28;20456;-62
2022/01/16 08:19:49;;;;;;;25.90;18.30;;;0.90;99.90;;;;;;5111792;28;20545;-62
2022/01/16 08:22:15;;;;;;;28.73;19.80;;;1.00;99.90;;;;;;5111957;28;20463;-62
2022/01/16 08:24:42;;;;;;;28.03;19.00;;;1.10;99.90;;;;;;5112124;28;20485;-62
2022/01/16 08:27:09;;;;;;;26.80;19.73;;;1.20;99.90;;;;;;5112346;28;21071;-62
2022/01/16 08:29:36;;;;;;;27.47;19.80;;;1.20;99.90;;;;;;5111888;28;20449;-62
2022/01/16 08:32:05;;;;;;;25.33;18.73;;;1.30;99.90;;;;;;5112007;28;20476;-62
2022/01/16 08:34:32;;;;;;;30.57;20.60;;;1.40;99.90;;;;;;5111682;28;20935;-63
2022/01/16 08:36:59;;;;;;;30.00;20.10;;;1.40;99.90;;;;;;5111999;28;20533;-63
2022/01/16 08:39:25;;;;;;;26.27;19.33;;;1.50;99.90;;;;;;5111277;28;20454;-63
2022/01/16 08:41:52;;;;;;;27.87;19.10;;;1.50;99.90;;;;;;5111662;28;20557;-63
2022/01/16 08:44:19;;;;;;;27.73;19.30;;;1.60;99.90;;;;;;5111792;28;20481;-63
2022/01/16 08:46:46;;;;;;;26.67;19.07;;;1.70;99.90;;;;;;5111637;28;20454;-63
2022/01/16 08:49:15;;;;;;;28.50;19.33;;;1.70;99.90;;;;;;5111021;28;20984;-63
2022/01/16 08:51:42;;;;;;;25.50;18.60;;;1.60;99.90;;;;;;5111448;28;20462;-63
2022/01/16 08:54:09;;;;;;;25.37;18.73;;;1.60;99.90;;;;;;5111697;28;20445;-64
2022/01/16 08:56:36;;;;;;;27.63;19.93;;;1.60;99.90;;;;;;5111581;28;20446;-63
2022/01/16 08:59:04;;;;;;;26.83;19.87;;;1.50;99.90;;;;;;5111480;28;20442;-63
2022/01/16 09:01:31;;;;;;;24.63;18.50;;;1.60;99.90;;;;;;5111230;28;20482;-64
2022/01/16 09:03:58;;;;;;;27.03;20.00;;;1.60;99.90;;;;;;5111471;28;20477;-63
2022/01/16 09:06:27;;;;;;;24.33;19.20;;;1.60;99.90;;;;;;5111299;28;20446;-63
2022/01/16 09:08:54;;;;;;;26.80;19.37;;;1.50;99.90;;;;;;5111759;28;20460;-63
2022/01/16 09:11:25;;;;;;;33.93;21.20;;;1.50;99.90;;;;;;5110787;28;20476;-62
2022/01/16 09:13:52;;;;;;;25.30;18.60;;;1.40;99.90;;;;;;5111470;28;20974;-63
2022/01/16 09:16:20;;;;;;;34.07;22.07;;;1.40;99.90;;;;;;5112153;27;20462;-67
2022/01/16 09:18:47;;;;;;;27.70;21.67;;;1.40;99.90;;;;;;5117072;27;20787;-63
2022/01/16 09:21:15;;;;;;;29.70;20.07;;;1.40;99.90;;;;;;5128528;27;20464;-66
2022/01/16 09:23:43;;;;;;;28.63;20.80;;;1.50;99.90;;;;;;5121126;27;20528;-67
2022/01/16 09:26:10;;;;;;;25.43;19.57;;;1.60;99.90;;;;;;5124895;27;20442;-66
2022/01/16 09:28:37;;;;;;;25.70;18.80;;;1.70;99.90;;;;;;5112723;27;20451;-64
2022/01/16 09:31:05;;;;;;;27.80;20.17;;;1.60;99.90;;;;;;5127787;27;20824;-64
2022/01/16 09:33:32;;;;;;;31.47;21.23;;;1.60;99.90;;;;;;5129717;27;20540;-65
2022/01/16 09:35:59;;;;;;;29.37;21.00;;;1.60;99.90;;;;;;5130120;27;20460;-64
2022/01/16 09:38:26;;;;;;;29.30;21.17;;;1.60;99.90;;;;;;5129708;27;20459;-64
2022/01/16 09:40:56;;;;;;;31.33;20.90;;;1.60;99.90;;;;;;5128046;27;20916;-69
2022/01/16 09:43:24;;;;;;;27.60;19.40;;;1.70;99.90;;;;;;5121255;27;21137;-66
2022/01/16 09:45:53;;;;;;;28.07;20.10;;;1.70;99.90;;;;;;5127985;27;20477;-65
2022/01/16 09:48:20;;;;;;;25.67;19.20;;;1.70;99.90;;;;;;5129652;27;20452;-64
2022/01/16 09:50:47;;;;;;;30.53;23.33;;;1.80;99.90;;;;;;5129426;27;21003;-65
2022/01/16 09:53:15;;;;;;;29.83;20.23;;;1.70;99.90;;;;;;5130015;27;20452;-64
2022/01/16 09:55:42;;;;;;;28.53;20.50;;;1.70;99.90;;;;;;5122452;27;20937;-65
2022/01/16 09:58:11;;;;;;;29.23;21.93;;;1.70;99.90;;;;;;5129661;27;20512;-65
2022/01/16 10:00:38;;;;;;;28.97;21.00;;;1.60;99.90;;;;;;5129055;27;20890;-65
2022/01/16 10:03:06;;;;;;;34.23;21.80;;;1.70;99.90;;;;;;5129717;27;20445;-64
2022/01/16 10:05:39;;;;;;;27.27;19.80;;;1.70;99.90;;;;;;5127901;27;20496;-64
2022/01/16 10:08:08;;;;;;;31.23;20.10;;;1.80;99.90;;;;;;5115033;27;20577;-63
2022/01/16 10:10:37;;;;;;;29.10;21.70;;;1.80;99.90;;;;;;5113629;27;20483;-62
2022/01/16 10:13:22;;;;;;;25.40;20.00;;;1.90;99.90;;;;;;5120701;27;20535;-64
2022/01/16 10:15:53;;;;;;;26.37;20.07;;;1.90;99.90;;;;;;5110551;27;20927;-63
2022/01/16 10:18:33;;;;;;;30.60;21.77;;;2.00;99.90;;;;;;5112287;27;20741;-64
2022/01/16 10:21:00;;;;;;;31.40;21.50;;;2.00;99.90;;;;;;5116133;27;21016;-64
2022/01/16 10:23:27;;;;;;;31.07;21.90;;;2.00;99.90;;;;;;5123339;27;20456;-65
2022/01/16 10:25:54;;;;;;;30.20;20.93;;;2.20;99.90;;;;;;5120944;27;20573;-65
2022/01/16 10:28:24;;;;;;;28.40;21.03;;;2.30;99.90;;;;;;5123821;27;20448;-63
2022/01/16 10:30:53;;;;;;;32.40;22.90;;;2.50;99.90;;;;;;5126772;27;20471;-64
2022/01/16 10:33:23;;;;;;;28.33;19.73;;;2.60;99.90;;;;;;5126126;27;20889;-64
2022/01/16 10:35:52;;;;;;;30.47;21.73;;;2.60;99.90;;;;;;5116211;27;20449;-64
2022/01/16 10:38:21;;;;;;;31.20;21.57;;;2.60;99.90;;;;;;5123643;27;20520;-65
2022/01/16 10:40:50;;;;;;;29.07;21.50;;;2.50;99.90;;;;;;5125971;27;20472;-64
2022/01/16 10:43:18;;;;;;;27.80;21.90;;;2.60;99.90;;;;;;5123769;27;20453;-64
2022/01/16 10:45:47;;;;;;;31.60;22.70;;;2.80;99.90;;;;;;5116124;27;21415;-65
2022/01/16 10:48:15;;;;;;;30.40;22.43;;;3.00;99.90;;;;;;5122292;27;20497;-64
2022/01/16 10:50:43;;;;;;;30.83;22.30;;;3.10;99.90;;;;;;5124143;27;20468;-65
2022/01/16 10:53:12;;;;;;;28.50;23.30;;;3.20;99.90;;;;;;5115106;27;20468;-68
2022/01/16 10:55:41;;;;;;;28.13;22.30;;;3.20;99.90;;;;;;5108269;27;20545;-68
2022/01/16 10:58:12;;;;;;;28.57;21.60;;;3.20;99.90;;;;;;5106904;27;22363;-64
2022/01/16 11:00:42;;;;;;;32.27;22.70;;;3.20;99.90;;;;;;5111609;27;20465;-66
2022/01/16 11:03:12;;;;;;;33.20;23.70;;;3.30;99.90;;;;;;5116421;28;20445;-63
2022/01/16 11:05:43;;;;;;;27.40;21.87;;;3.20;99.90;;;;;;5105229;28;20481;-66
2022/01/16 11:08:12;;;;;;;30.50;23.00;;;3.30;99.90;;;;;;5117296;28;20461;-65
2022/01/16 11:10:41;;;;;;;25.67;20.30;;;3.20;99.90;;;;;;5110139;28;20970;-64
2022/01/16 11:13:09;;;;;;;28.60;21.63;;;3.20;99.90;;;;;;5116986;28;20789;-62
2022/01/16 11:15:38;;;;;;;28.63;22.20;;;3.30;99.90;;;;;;5115753;28;20488;-66
2022/01/16 11:18:06;;;;;;;29.67;23.00;;;3.40;99.90;;;;;;5116101;28;20982;-64
2022/01/16 11:20:36;;;;;;;27.17;19.57;;;3.50;99.90;;;;;;5113666;28;20479;-63
2022/01/16 11:23:13;;;;;;;28.23;21.90;;;3.60;99.90;;;;;;5115772;28;20469;-63
2022/01/16 11:25:40;;;;;;;28.00;21.10;;;3.70;99.90;;;;;;5113118;28;20900;-64
2022/01/16 11:28:10;;;;;;;31.77;23.47;;;3.70;99.90;;;;;;5110036;28;20459;-62
2022/01/16 11:30:40;;;;;;;30.80;22.70;;;3.60;99.90;;;;;;5115517;28;21063;-65
2022/01/16 11:33:07;;;;;;;31.70;23.20;;;3.70;99.90;;;;;;5116445;28;20444;-64
2022/01/16 11:35:41;;;;;;;33.63;23.20;;;3.60;99.90;;;;;;5106834;27;20446;-60
2022/01/16 11:38:10;;;;;;;26.53;21.53;;;3.50;99.90;;;;;;5112891;28;20461;-66
2022/01/16 11:40:48;;;;;;;33.07;21.77;;;3.60;99.90;;;;;;5111192;28;20549;-65
2022/01/16 11:43:26;;;;;;;33.63;23.33;;;3.50;99.90;;;;;;5114458;28;20960;-63
2022/01/16 11:46:03;;;;;;;29.13;20.40;;;3.40;99.90;;;;;;5114055;27;20901;-65
2022/01/16 11:48:47;;;;;;;35.23;21.70;;;3.20;99.90;;;;;;5110357;27;20455;-64
2022/01/16 11:52:02;;;;;;;34.83;20.80;;;3.10;99.90;;;;;;5118127;27;21026;-65
2022/01/16 11:54:39;;;;;;;33.70;21.63;;;3.00;99.90;;;;;;5117340;27;20449;-64
2022/01/16 11:57:21;;;;;;;34.07;19.77;;;3.00;99.90;;;;;;5115875;27;20832;-65
2022/01/16 11:59:49;;;;;;;35.73;20.00;;;3.00;99.90;;;;;;5117645;27;20451;-65
2022/01/16 12:02:29;;;;;;;31.80;20.57;;;3.00;99.90;;;;;;5119232;27;20475;-64
2022/01/16 12:05:04;;;;;;;33.60;21.27;;;3.00;99.90;;;;;;5117184;27;20596;-67
2022/01/16 12:07:55;;;;;;;34.37;20.77;;;3.00;99.90;;;;;;5116405;27;20545;-65
2022/01/16 12:10:57;;;;;;;33.63;20.20;;;3.00;99.90;;;;;;5116009;27;20507;-63
2022/01/16 12:13:50;;;;;;;31.57;18.53;;;3.10;99.90;;;;;;5116783;27;20471;-64
2022/01/16 12:16:45;;;;;;;32.93;18.77;;;3.10;99.90;;;;;;5116827;27;20448;-64
2022/01/16 12:19:36;;;;;;;26.90;18.73;;;3.10;99.90;;;;;;5116913;27;20449;-62
2022/01/16 12:22:04;;;;;;;28.73;16.57;;;3.20;99.90;;;;;;5117549;27;20469;-65
2022/01/16 12:24:36;;;;;;;27.53;18.43;;;3.30;99.90;;;;;;5125372;27;20444;-65
2022/01/16 12:27:31;;;;;;;29.90;17.60;;;3.30;99.90;;;;;;5123741;27;20535;-64
2022/01/16 12:30:22;;;;;;;33.43;18.67;;;3.30;99.90;;;;;;5120520;27;20467;-66
2022/01/16 12:32:50;;;;;;;27.00;18.33;;;3.30;99.90;;;;;;5120589;27;20448;-64
2022/01/16 12:36:08;;;;;;;29.90;18.63;;;3.40;99.90;;;;;;5115896;27;20446;-65
2022/01/16 12:38:37;;;;;;;26.53;17.20;;;3.50;99.90;;;;;;5121313;27;20450;-64
2022/01/16 12:41:05;;;;;;;27.70;17.80;;;3.50;99.90;;;;;;5122047;27;20528;-66
2022/01/16 12:43:41;;;;;;;26.60;17.67;;;3.60;99.90;;;;;;5125578;27;20535;-64
2022/01/16 12:46:09;;;;;;;29.93;18.40;;;3.60;99.90;;;;;;5114631;27;20997;-65
2022/01/16 12:48:40;;;;;;;31.23;18.57;;;3.70;99.90;;;;;;5115940;27;20495;-65
2022/01/16 12:51:08;;;;;;;28.60;18.43;;;3.80;99.90;;;;;;5118433;27;20465;-63
2022/01/16 12:53:37;;;;;;;28.87;19.17;;;3.90;99.90;;;;;;5126191;27;20441;-66
2022/01/16 12:56:19;;;;;;;24.90;16.43;;;3.90;99.90;;;;;;5114899;27;20533;-64
2022/01/16 12:58:47;;;;;;;28.67;18.27;;;4.00;99.90;;;;;;5120122;27;20523;-63
2022/01/16 13:01:14;;;;;;;22.73;16.13;;;4.00;99.90;;;;;;5127481;27;20471;-64
2022/01/16 13:03:43;;;;;;;25.00;17.03;;;4.00;99.90;;;;;;5124516;27;20454;-63
2022/01/16 13:06:18;;;;;;;26.20;16.57;;;4.00;99.90;;;;;;5117352;27;20488;-65
2022/01/16 13:09:04;;;;;;;24.93;16.97;;;4.00;99.90;;;;;;5115059;27;20442;-65
2022/01/16 13:11:34;;;;;;;22.93;16.33;;;4.00;99.90;;;;;;5119740;27;20556;-63
2022/01/16 13:14:04;;;;;;;27.63;17.20;;;4.10;99.90;;;;;;5117944;27;20546;-65
2022/01/16 13:16:32;;;;;;;22.80;16.03;;;4.20;99.90;;;;;;5121296;27;20459;-65
2022/01/16 13:19:08;;;;;;;25.97;16.47;;;4.30;99.90;;;;;;5119396;27;20536;-63
2022/01/16 13:22:02;;;;;;;24.40;16.70;;;4.30;99.90;;;;;;5131831;27;20461;-65
2022/01/16 13:24:39;;;;;;;19.93;13.63;;;4.30;99.90;;;;;;5124053;27;20530;-65
2022/01/16 13:27:09;;;;;;;24.10;16.17;;;4.30;99.90;;;;;;5113776;28;20568;-63